sensor_id;sensor_type;location;lat;lon;timestamp;P1;durP1;ratioP1;P2;durP2;ratioP2
73951;SDS011;62304;47.662;18.324;2022-07-29T00:01:28;14.03;;;8.80;;
73951;SDS011;62304;47.662;18.324;2022-07-29T00:04:34;14.82;;;8.40;;
73951;SDS011;62304;47.662;18.324;2022-07-29T00:07:37;15.82;;;8.43;;
73951;SDS011;62304;47.662;18.324;2022-07-29T00:10:49;15.05;;;9.00;;
73951;SDS011;62304;47.662;18.324;2022-07-29T00:13:52;14.52;;;8.27;;
73951;SDS011;62304;47.662;18.324;2022-07-29T00:16:55;17.03;;;9.10;;
73951;SDS011;62304;47.662;18.324;2022-07-29T00:19:58;16.48;;;9.43;;
73951;SDS011;62304;47.662;18.324;2022-07-29T00:23:01;16.23;;;8.98;;
73951;SDS011;62304;47.662;18.324;2022-07-29T00:26:05;20.17;;;9.57;;
73951;SDS011;62304;47.662;18.324;2022-07-29T00:29:09;17.02;;;9.40;;
73951;SDS011;62304;47.662;18.324;2022-07-29T00:32:32;14.47;;;9.60;;
73951;SDS011;62304;47.662;18.324;2022-07-29T00:35:35;15.93;;;10.07;;
73951;SDS011;62304;47.662;18.324;2022-07-29T00:38:49;18.30;;;10.20;;
73951;SDS011;62304;47.662;18.324;2022-07-29T00:41:53;16.80;;;10.10;;
73951;SDS011;62304;47.662;18.324;2022-07-29T00:44:56;19.25;;;10.10;;
73951;SDS011;62304;47.662;18.324;2022-07-29T00:47:59;17.30;;;9.80;;
73951;SDS011;62304;47.662;18.324;2022-07-29T00:51:03;18.08;;;10.30;;
73951;SDS011;62304;47.662;18.324;2022-07-29T00:54:08;18.12;;;10.85;;
73951;SDS011;62304;47.662;18.324;2022-07-29T00:57:11;19.30;;;10.57;;
73951;SDS011;62304;47.662;18.324;2022-07-29T01:00:17;18.75;;;11.00;;
73951;SDS011;62304;47.662;18.324;2022-07-29T01:03:29;20.57;;;10.77;;
73951;SDS011;62304;47.662;18.324;2022-07-29T01:06:32;20.12;;;11.75;;
73951;SDS011;62304;47.662;18.324;2022-07-29T01:09:36;20.40;;;11.25;;
73951;SDS011;62304;47.662;18.324;2022-07-29T01:12:51;20.33;;;12.13;;
73951;SDS011;62304;47.662;18.324;2022-07-29T01:15:59;18.05;;;11.27;;
73951;SDS011;62304;47.662;18.324;2022-07-29T01:19:14;18.90;;;11.63;;
73951;SDS011;62304;47.662;18.324;2022-07-29T01:22:25;19.58;;;10.57;;
73951;SDS011;62304;47.662;18.324;2022-07-29T01:25:51;20.08;;;11.05;;
73951;SDS011;62304;47.662;18.324;2022-07-29T01:29:17;22.20;;;11.73;;
73951;SDS011;62304;47.662;18.324;2022-07-29T01:32:31;20.52;;;11.82;;
73951;SDS011;62304;47.662;18.324;2022-07-29T01:35:40;19.97;;;11.60;;
73951;SDS011;62304;47.662;18.324;2022-07-29T01:38:47;20.75;;;11.57;;
73951;SDS011;62304;47.662;18.324;2022-07-29T01:41:59;19.98;;;11.88;;
73951;SDS011;62304;47.662;18.324;2022-07-29T01:48:16;20.27;;;11.52;;
73951;SDS011;62304;47.662;18.324;2022-07-29T01:51:25;19.37;;;11.37;;
73951;SDS011;62304;47.662;18.324;2022-07-29T01:54:48;22.55;;;11.60;;
73951;SDS011;62304;47.662;18.324;2022-07-29T01:57:57;18.87;;;12.27;;
73951;SDS011;62304;47.662;18.324;2022-07-29T02:01:03;18.15;;;11.20;;
73951;SDS011;62304;47.662;18.324;2022-07-29T02:04:09;20.65;;;11.45;;
73951;SDS011;62304;47.662;18.324;2022-07-29T02:07:30;20.50;;;11.97;;
73951;SDS011;62304;47.662;18.324;2022-07-29T02:10:36;17.73;;;10.32;;
73951;SDS011;62304;47.662;18.324;2022-07-29T02:13:40;19.40;;;10.52;;
73951;SDS011;62304;47.662;18.324;2022-07-29T02:16:44;17.10;;;10.20;;
73951;SDS011;62304;47.662;18.324;2022-07-29T02:19:49;19.40;;;10.02;;
73951;SDS011;62304;47.662;18.324;2022-07-29T02:22:54;16.37;;;9.77;;
73951;SDS011;62304;47.662;18.324;2022-07-29T02:26:00;16.10;;;10.48;;
73951;SDS011;62304;47.662;18.324;2022-07-29T02:29:05;17.42;;;10.38;;
73951;SDS011;62304;47.662;18.324;2022-07-29T02:32:10;18.42;;;9.98;;
73951;SDS011;62304;47.662;18.324;2022-07-29T02:35:16;17.55;;;9.95;;
73951;SDS011;62304;47.662;18.324;2022-07-29T02:38:22;19.93;;;10.10;;
73951;SDS011;62304;47.662;18.324;2022-07-29T02:41:47;15.07;;;9.70;;
73951;SDS011;62304;47.662;18.324;2022-07-29T02:44:51;15.73;;;9.00;;
73951;SDS011;62304;47.662;18.324;2022-07-29T02:47:54;15.52;;;9.38;;
73951;SDS011;62304;47.662;18.324;2022-07-29T02:51:07;15.90;;;9.20;;
73951;SDS011;62304;47.662;18.324;2022-07-29T02:54:51;15.83;;;9.70;;
73951;SDS011;62304;47.662;18.324;2022-07-29T02:58:02;18.65;;;9.07;;
73951;SDS011;62304;47.662;18.324;2022-07-29T03:01:15;18.95;;;10.60;;
73951;SDS011;62304;47.662;18.324;2022-07-29T03:04:24;16.20;;;9.45;;
73951;SDS011;62304;47.662;18.324;2022-07-29T03:07:28;19.90;;;10.57;;
73951;SDS011;62304;47.662;18.324;2022-07-29T03:10:33;19.47;;;9.53;;
73951;SDS011;62304;47.662;18.324;2022-07-29T03:13:37;21.98;;;10.80;;
73951;SDS011;62304;47.662;18.324;2022-07-29T03:16:40;20.52;;;10.70;;
73951;SDS011;62304;47.662;18.324;2022-07-29T03:19:44;17.05;;;10.20;;
73951;SDS011;62304;47.662;18.324;2022-07-29T03:22:47;16.58;;;9.77;;
73951;SDS011;62304;47.662;18.324;2022-07-29T03:25:51;19.43;;;9.67;;
73951;SDS011;62304;47.662;18.324;2022-07-29T03:28:55;19.73;;;10.13;;
73951;SDS011;62304;47.662;18.324;2022-07-29T03:31:58;21.92;;;9.88;;
73951;SDS011;62304;47.662;18.324;2022-07-29T03:35:01;15.63;;;9.40;;
73951;SDS011;62304;47.662;18.324;2022-07-29T03:38:06;19.58;;;9.80;;
73951;SDS011;62304;47.662;18.324;2022-07-29T03:41:11;19.37;;;9.50;;
73951;SDS011;62304;47.662;18.324;2022-07-29T03:44:17;16.67;;;9.48;;
73951;SDS011;62304;47.662;18.324;2022-07-29T03:47:22;16.65;;;9.50;;
73951;SDS011;62304;47.662;18.324;2022-07-29T03:50:49;14.80;;;9.27;;
73951;SDS011;62304;47.662;18.324;2022-07-29T03:53:53;15.68;;;9.23;;
73951;SDS011;62304;47.662;18.324;2022-07-29T03:56:57;23.37;;;11.00;;
73951;SDS011;62304;47.662;18.324;2022-07-29T04:00:03;16.95;;;9.65;;
73951;SDS011;62304;47.662;18.324;2022-07-29T04:03:08;15.23;;;9.10;;
73951;SDS011;62304;47.662;18.324;2022-07-29T04:06:12;14.30;;;8.48;;
73951;SDS011;62304;47.662;18.324;2022-07-29T04:09:17;15.20;;;8.40;;
73951;SDS011;62304;47.662;18.324;2022-07-29T04:12:19;15.00;;;8.57;;
73951;SDS011;62304;47.662;18.324;2022-07-29T04:15:23;15.98;;;9.20;;
73951;SDS011;62304;47.662;18.324;2022-07-29T04:18:26;19.42;;;9.43;;
73951;SDS011;62304;47.662;18.324;2022-07-29T04:21:31;15.02;;;8.43;;
73951;SDS011;62304;47.662;18.324;2022-07-29T04:24:38;16.48;;;8.27;;
73951;SDS011;62304;47.662;18.324;2022-07-29T04:27:45;11.80;;;7.90;;
73951;SDS011;62304;47.662;18.324;2022-07-29T04:31:03;13.43;;;7.45;;
73951;SDS011;62304;47.662;18.324;2022-07-29T04:34:08;12.45;;;8.80;;
73951;SDS011;62304;47.662;18.324;2022-07-29T04:37:11;11.12;;;7.18;;
73951;SDS011;62304;47.662;18.324;2022-07-29T04:40:15;11.65;;;7.72;;
73951;SDS011;62304;47.662;18.324;2022-07-29T04:43:19;11.73;;;7.60;;
73951;SDS011;62304;47.662;18.324;2022-07-29T04:46:24;11.77;;;7.72;;
73951;SDS011;62304;47.662;18.324;2022-07-29T04:49:27;11.12;;;7.37;;
73951;SDS011;62304;47.662;18.324;2022-07-29T04:52:30;11.60;;;6.97;;
73951;SDS011;62304;47.662;18.324;2022-07-29T04:55:33;11.77;;;7.47;;
73951;SDS011;62304;47.662;18.324;2022-07-29T04:58:40;11.90;;;7.40;;
73951;SDS011;62304;47.662;18.324;2022-07-29T05:01:43;13.25;;;6.78;;
73951;SDS011;62304;47.662;18.324;2022-07-29T05:04:46;11.32;;;7.03;;
73951;SDS011;62304;47.662;18.324;2022-07-29T05:07:49;12.70;;;6.65;;
73951;SDS011;62304;47.662;18.324;2022-07-29T05:10:52;10.98;;;6.90;;
73951;SDS011;62304;47.662;18.324;2022-07-29T05:13:55;8.57;;;6.23;;
73951;SDS011;62304;47.662;18.324;2022-07-29T05:16:58;10.80;;;6.10;;
73951;SDS011;62304;47.662;18.324;2022-07-29T05:20:02;8.20;;;5.85;;
73951;SDS011;62304;47.662;18.324;2022-07-29T05:23:05;11.12;;;6.55;;
73951;SDS011;62304;47.662;18.324;2022-07-29T05:26:08;9.43;;;6.28;;
73951;SDS011;62304;47.662;18.324;2022-07-29T05:29:11;9.93;;;6.50;;
73951;SDS011;62304;47.662;18.324;2022-07-29T05:32:34;10.07;;;6.80;;
73951;SDS011;62304;47.662;18.324;2022-07-29T05:35:37;11.50;;;6.57;;
73951;SDS011;62304;47.662;18.324;2022-07-29T05:38:40;10.50;;;5.95;;
73951;SDS011;62304;47.662;18.324;2022-07-29T05:41:43;11.20;;;6.55;;
73951;SDS011;62304;47.662;18.324;2022-07-29T05:44:52;11.83;;;6.83;;
73951;SDS011;62304;47.662;18.324;2022-07-29T05:47:56;10.02;;;6.32;;
73951;SDS011;62304;47.662;18.324;2022-07-29T05:50:59;10.48;;;6.10;;
73951;SDS011;62304;47.662;18.324;2022-07-29T05:54:04;11.57;;;6.40;;
73951;SDS011;62304;47.662;18.324;2022-07-29T05:57:14;13.75;;;6.60;;
73951;SDS011;62304;47.662;18.324;2022-07-29T06:00:27;11.40;;;6.73;;
73951;SDS011;62304;47.662;18.324;2022-07-29T06:03:30;7.70;;;5.95;;
73951;SDS011;62304;47.662;18.324;2022-07-29T06:06:33;13.30;;;6.60;;
73951;SDS011;62304;47.662;18.324;2022-07-29T06:09:37;11.35;;;5.80;;
73951;SDS011;62304;47.662;18.324;2022-07-29T06:12:40;12.13;;;6.50;;
73951;SDS011;62304;47.662;18.324;2022-07-29T06:15:46;10.33;;;6.00;;
73951;SDS011;62304;47.662;18.324;2022-07-29T06:18:48;8.90;;;6.40;;
73951;SDS011;62304;47.662;18.324;2022-07-29T06:21:51;9.90;;;5.72;;
73951;SDS011;62304;47.662;18.324;2022-07-29T06:24:54;9.25;;;6.43;;
73951;SDS011;62304;47.662;18.324;2022-07-29T06:27:57;11.27;;;6.28;;
73951;SDS011;62304;47.662;18.324;2022-07-29T06:31:00;7.70;;;5.80;;
73951;SDS011;62304;47.662;18.324;2022-07-29T06:34:03;12.95;;;6.20;;
73951;SDS011;62304;47.662;18.324;2022-07-29T06:37:07;15.48;;;6.75;;
73951;SDS011;62304;47.662;18.324;2022-07-29T06:40:17;8.73;;;6.25;;
73951;SDS011;62304;47.662;18.324;2022-07-29T06:43:39;7.57;;;6.12;;
73951;SDS011;62304;47.662;18.324;2022-07-29T06:46:56;10.13;;;5.47;;
73951;SDS011;62304;47.662;18.324;2022-07-29T06:49:59;8.07;;;6.20;;
73951;SDS011;62304;47.662;18.324;2022-07-29T06:53:04;8.85;;;5.93;;
73951;SDS011;62304;47.662;18.324;2022-07-29T06:56:08;10.95;;;6.53;;
73951;SDS011;62304;47.662;18.324;2022-07-29T06:59:11;9.98;;;5.62;;
73951;SDS011;62304;47.662;18.324;2022-07-29T07:02:14;11.83;;;6.10;;
73951;SDS011;62304;47.662;18.324;2022-07-29T07:05:17;10.27;;;6.05;;
73951;SDS011;62304;47.662;18.324;2022-07-29T07:08:20;7.10;;;5.78;;
73951;SDS011;62304;47.662;18.324;2022-07-29T07:11:24;8.35;;;5.53;;
73951;SDS011;62304;47.662;18.324;2022-07-29T07:14:28;8.68;;;6.60;;
73951;SDS011;62304;47.662;18.324;2022-07-29T07:17:31;10.90;;;6.63;;
73951;SDS011;62304;47.662;18.324;2022-07-29T07:20:36;10.25;;;6.07;;
73951;SDS011;62304;47.662;18.324;2022-07-29T07:23:40;7.45;;;5.43;;
73951;SDS011;62304;47.662;18.324;2022-07-29T07:26:42;10.95;;;5.65;;
73951;SDS011;62304;47.662;18.324;2022-07-29T07:29:47;7.95;;;5.30;;
73951;SDS011;62304;47.662;18.324;2022-07-29T07:32:49;6.57;;;5.33;;
73951;SDS011;62304;47.662;18.324;2022-07-29T07:35:53;7.70;;;5.18;;
73951;SDS011;62304;47.662;18.324;2022-07-29T07:38:55;7.28;;;5.80;;
73951;SDS011;62304;47.662;18.324;2022-07-29T07:41:59;8.20;;;4.75;;
73951;SDS011;62304;47.662;18.324;2022-07-29T07:45:02;8.95;;;6.03;;
73951;SDS011;62304;47.662;18.324;2022-07-29T07:48:15;6.40;;;5.27;;
73951;SDS011;62304;47.662;18.324;2022-07-29T07:51:18;9.00;;;6.05;;
73951;SDS011;62304;47.662;18.324;2022-07-29T07:54:21;7.37;;;6.05;;
73951;SDS011;62304;47.662;18.324;2022-07-29T07:57:24;8.02;;;5.30;;
73951;SDS011;62304;47.662;18.324;2022-07-29T08:00:27;6.82;;;4.55;;
73951;SDS011;62304;47.662;18.324;2022-07-29T08:03:32;11.83;;;4.63;;
73951;SDS011;62304;47.662;18.324;2022-07-29T08:06:35;11.30;;;5.53;;
73951;SDS011;62304;47.662;18.324;2022-07-29T08:09:39;8.02;;;5.62;;
73951;SDS011;62304;47.662;18.324;2022-07-29T08:12:42;7.82;;;5.60;;
73951;SDS011;62304;47.662;18.324;2022-07-29T08:15:45;9.73;;;5.12;;
73951;SDS011;62304;47.662;18.324;2022-07-29T08:18:48;10.90;;;5.80;;
73951;SDS011;62304;47.662;18.324;2022-07-29T08:21:52;7.55;;;4.80;;
73951;SDS011;62304;47.662;18.324;2022-07-29T08:24:56;7.15;;;5.47;;
73951;SDS011;62304;47.662;18.324;2022-07-29T08:27:59;7.50;;;5.32;;
73951;SDS011;62304;47.662;18.324;2022-07-29T08:31:02;6.95;;;5.68;;
73951;SDS011;62304;47.662;18.324;2022-07-29T08:34:05;11.00;;;5.20;;
73951;SDS011;62304;47.662;18.324;2022-07-29T08:37:08;7.18;;;5.60;;
73951;SDS011;62304;47.662;18.324;2022-07-29T08:40:12;8.23;;;5.93;;
73951;SDS011;62304;47.662;18.324;2022-07-29T08:43:16;10.13;;;6.00;;
73951;SDS011;62304;47.662;18.324;2022-07-29T08:46:20;10.45;;;5.50;;
73951;SDS011;62304;47.662;18.324;2022-07-29T08:49:24;9.77;;;5.60;;
73951;SDS011;62304;47.662;18.324;2022-07-29T08:52:27;8.10;;;5.62;;
73951;SDS011;62304;47.662;18.324;2022-07-29T08:55:31;9.35;;;5.65;;
73951;SDS011;62304;47.662;18.324;2022-07-29T08:58:35;6.97;;;5.30;;
73951;SDS011;62304;47.662;18.324;2022-07-29T09:01:39;7.28;;;5.80;;
73951;SDS011;62304;47.662;18.324;2022-07-29T09:04:46;9.00;;;5.20;;
73951;SDS011;62304;47.662;18.324;2022-07-29T09:07:50;7.80;;;5.25;;
73951;SDS011;62304;47.662;18.324;2022-07-29T09:10:56;10.20;;;6.10;;
73951;SDS011;62304;47.662;18.324;2022-07-29T09:14:01;10.73;;;6.18;;
73951;SDS011;62304;47.662;18.324;2022-07-29T09:17:05;9.45;;;5.70;;
73951;SDS011;62304;47.662;18.324;2022-07-29T09:20:10;13.53;;;6.03;;
73951;SDS011;62304;47.662;18.324;2022-07-29T09:23:15;6.62;;;5.32;;
73951;SDS011;62304;47.662;18.324;2022-07-29T09:26:29;7.12;;;5.78;;
73951;SDS011;62304;47.662;18.324;2022-07-29T09:29:36;9.15;;;5.72;;
73951;SDS011;62304;47.662;18.324;2022-07-29T09:32:55;6.45;;;5.10;;
73951;SDS011;62304;47.662;18.324;2022-07-29T09:36:06;11.27;;;4.83;;
73951;SDS011;62304;47.662;18.324;2022-07-29T09:39:10;6.35;;;4.68;;
73951;SDS011;62304;47.662;18.324;2022-07-29T09:42:15;5.72;;;4.90;;
73951;SDS011;62304;47.662;18.324;2022-07-29T09:45:34;10.18;;;5.35;;
73951;SDS011;62304;47.662;18.324;2022-07-29T09:48:37;8.40;;;4.87;;
73951;SDS011;62304;47.662;18.324;2022-07-29T09:51:40;7.07;;;5.50;;
73951;SDS011;62304;47.662;18.324;2022-07-29T09:54:45;8.18;;;5.22;;
73951;SDS011;62304;47.662;18.324;2022-07-29T09:57:48;6.93;;;5.53;;
73951;SDS011;62304;47.662;18.324;2022-07-29T10:00:52;7.60;;;5.43;;
73951;SDS011;62304;47.662;18.324;2022-07-29T10:03:58;8.63;;;5.12;;
73951;SDS011;62304;47.662;18.324;2022-07-29T10:07:02;6.83;;;4.87;;
73951;SDS011;62304;47.662;18.324;2022-07-29T10:10:07;8.60;;;4.65;;
73951;SDS011;62304;47.662;18.324;2022-07-29T10:13:12;7.43;;;4.35;;
73951;SDS011;62304;47.662;18.324;2022-07-29T10:16:18;5.47;;;4.22;;
73951;SDS011;62304;47.662;18.324;2022-07-29T10:19:22;5.55;;;4.50;;
73951;SDS011;62304;47.662;18.324;2022-07-29T10:22:26;6.53;;;4.60;;
73951;SDS011;62304;47.662;18.324;2022-07-29T10:25:50;7.20;;;4.72;;
73951;SDS011;62304;47.662;18.324;2022-07-29T10:28:53;8.43;;;4.70;;
73951;SDS011;62304;47.662;18.324;2022-07-29T10:35:31;7.53;;;4.47;;
73951;SDS011;62304;47.662;18.324;2022-07-29T10:45:18;7.20;;;4.50;;
73951;SDS011;62304;47.662;18.324;2022-07-29T10:48:22;6.45;;;4.60;;
73951;SDS011;62304;47.662;18.324;2022-07-29T10:51:25;6.20;;;4.75;;
73951;SDS011;62304;47.662;18.324;2022-07-29T10:54:48;7.53;;;4.53;;
73951;SDS011;62304;47.662;18.324;2022-07-29T10:58:39;5.03;;;3.95;;
73951;SDS011;62304;47.662;18.324;2022-07-29T11:01:29;6.97;;;4.12;;
73951;SDS011;62304;47.662;18.324;2022-07-29T11:11:31;7.93;;;4.53;;
73951;SDS011;62304;47.662;18.324;2022-07-29T11:21:01;6.57;;;4.30;;
73951;SDS011;62304;47.662;18.324;2022-07-29T11:24:17;8.40;;;4.50;;
73951;SDS011;62304;47.662;18.324;2022-07-29T11:27:31;8.70;;;4.03;;
73951;SDS011;62304;47.662;18.324;2022-07-29T11:30:51;6.97;;;4.55;;
73951;SDS011;62304;47.662;18.324;2022-07-29T11:33:55;4.60;;;4.07;;
73951;SDS011;62304;47.662;18.324;2022-07-29T11:40:14;9.15;;;5.03;;
73951;SDS011;62304;47.662;18.324;2022-07-29T11:43:45;5.07;;;3.83;;
73951;SDS011;62304;47.662;18.324;2022-07-29T11:46:53;7.12;;;4.32;;
73951;SDS011;62304;47.662;18.324;2022-07-29T11:49:57;6.37;;;4.20;;
73951;SDS011;62304;47.662;18.324;2022-07-29T11:53:10;7.25;;;4.12;;
73951;SDS011;62304;47.662;18.324;2022-07-29T11:56:15;5.40;;;4.15;;
73951;SDS011;62304;47.662;18.324;2022-07-29T11:59:27;5.97;;;3.83;;
73951;SDS011;62304;47.662;18.324;2022-07-29T12:02:39;7.72;;;4.30;;
73951;SDS011;62304;47.662;18.324;2022-07-29T12:05:49;7.00;;;4.43;;
73951;SDS011;62304;47.662;18.324;2022-07-29T12:08:53;7.93;;;3.90;;
73951;SDS011;62304;47.662;18.324;2022-07-29T12:11:56;5.10;;;3.97;;
73951;SDS011;62304;47.662;18.324;2022-07-29T12:18:21;8.68;;;4.40;;
73951;SDS011;62304;47.662;18.324;2022-07-29T12:21:25;8.02;;;4.50;;
73951;SDS011;62304;47.662;18.324;2022-07-29T12:24:42;5.37;;;4.20;;
73951;SDS011;62304;47.662;18.324;2022-07-29T12:27:46;6.25;;;4.43;;
73951;SDS011;62304;47.662;18.324;2022-07-29T12:30:50;6.47;;;4.60;;
73951;SDS011;62304;47.662;18.324;2022-07-29T12:33:55;6.62;;;4.12;;
73951;SDS011;62304;47.662;18.324;2022-07-29T12:36:59;6.68;;;4.50;;
73951;SDS011;62304;47.662;18.324;2022-07-29T12:40:04;8.05;;;4.87;;
73951;SDS011;62304;47.662;18.324;2022-07-29T12:43:14;8.02;;;4.87;;
73951;SDS011;62304;47.662;18.324;2022-07-29T12:46:18;7.60;;;4.73;;
73951;SDS011;62304;47.662;18.324;2022-07-29T12:49:21;8.25;;;4.90;;
73951;SDS011;62304;47.662;18.324;2022-07-29T12:55:39;7.20;;;4.95;;
73951;SDS011;62304;47.662;18.324;2022-07-29T12:58:54;8.52;;;5.80;;
73951;SDS011;62304;47.662;18.324;2022-07-29T13:01:59;8.57;;;4.87;;
73951;SDS011;62304;47.662;18.324;2022-07-29T13:05:03;7.87;;;5.03;;
73951;SDS011;62304;47.662;18.324;2022-07-29T13:08:10;9.02;;;4.80;;
73951;SDS011;62304;47.662;18.324;2022-07-29T13:14:41;6.97;;;4.20;;
73951;SDS011;62304;47.662;18.324;2022-07-29T13:17:48;6.10;;;4.80;;
73951;SDS011;62304;47.662;18.324;2022-07-29T13:20:51;7.20;;;5.00;;
73951;SDS011;62304;47.662;18.324;2022-07-29T13:23:54;7.43;;;4.85;;
73951;SDS011;62304;47.662;18.324;2022-07-29T13:26:57;6.35;;;4.53;;
73951;SDS011;62304;47.662;18.324;2022-07-29T13:30:01;6.10;;;4.47;;
73951;SDS011;62304;47.662;18.324;2022-07-29T13:33:07;7.93;;;4.47;;
73951;SDS011;62304;47.662;18.324;2022-07-29T13:36:10;7.72;;;4.72;;
73951;SDS011;62304;47.662;18.324;2022-07-29T13:39:13;7.35;;;4.50;;
73951;SDS011;62304;47.662;18.324;2022-07-29T13:42:16;5.85;;;4.93;;
73951;SDS011;62304;47.662;18.324;2022-07-29T13:45:19;10.60;;;4.50;;
73951;SDS011;62304;47.662;18.324;2022-07-29T13:48:21;6.97;;;4.70;;
73951;SDS011;62304;47.662;18.324;2022-07-29T13:51:24;8.90;;;4.90;;
73951;SDS011;62304;47.662;18.324;2022-07-29T13:54:27;7.55;;;4.87;;
73951;SDS011;62304;47.662;18.324;2022-07-29T13:57:31;6.70;;;4.93;;
73951;SDS011;62304;47.662;18.324;2022-07-29T14:00:34;6.87;;;4.40;;
73951;SDS011;62304;47.662;18.324;2022-07-29T14:03:37;8.50;;;4.17;;
73951;SDS011;62304;47.662;18.324;2022-07-29T14:06:46;7.78;;;4.75;;
73951;SDS011;62304;47.662;18.324;2022-07-29T14:09:50;5.95;;;4.80;;
73951;SDS011;62304;47.662;18.324;2022-07-29T14:12:53;5.68;;;4.80;;
73951;SDS011;62304;47.662;18.324;2022-07-29T14:15:56;6.82;;;4.50;;
73951;SDS011;62304;47.662;18.324;2022-07-29T14:18:59;7.83;;;4.43;;
73951;SDS011;62304;47.662;18.324;2022-07-29T14:22:03;5.60;;;4.20;;
73951;SDS011;62304;47.662;18.324;2022-07-29T14:25:08;8.15;;;4.97;;
73951;SDS011;62304;47.662;18.324;2022-07-29T14:28:16;7.37;;;4.70;;
73951;SDS011;62304;47.662;18.324;2022-07-29T14:31:19;9.10;;;4.68;;
73951;SDS011;62304;47.662;18.324;2022-07-29T14:34:22;9.30;;;4.03;;
73951;SDS011;62304;47.662;18.324;2022-07-29T14:37:25;8.93;;;4.43;;
73951;SDS011;62304;47.662;18.324;2022-07-29T14:40:28;8.57;;;4.70;;
73951;SDS011;62304;47.662;18.324;2022-07-29T14:43:31;6.37;;;4.55;;
73951;SDS011;62304;47.662;18.324;2022-07-29T14:46:34;9.95;;;4.87;;
73951;SDS011;62304;47.662;18.324;2022-07-29T14:49:37;5.77;;;4.27;;
73951;SDS011;62304;47.662;18.324;2022-07-29T14:52:40;8.60;;;4.40;;
73951;SDS011;62304;47.662;18.324;2022-07-29T14:55:43;6.60;;;4.40;;
73951;SDS011;62304;47.662;18.324;2022-07-29T14:58:46;7.50;;;4.72;;
73951;SDS011;62304;47.662;18.324;2022-07-29T15:01:52;7.65;;;4.97;;
73951;SDS011;62304;47.662;18.324;2022-07-29T15:04:56;7.03;;;4.63;;
73951;SDS011;62304;47.662;18.324;2022-07-29T15:08:00;6.10;;;4.75;;
73951;SDS011;62304;47.662;18.324;2022-07-29T15:11:03;5.75;;;4.35;;
73951;SDS011;62304;47.662;18.324;2022-07-29T15:14:06;6.55;;;4.30;;
73951;SDS011;62304;47.662;18.324;2022-07-29T15:17:10;5.43;;;4.40;;
73951;SDS011;62304;47.662;18.324;2022-07-29T15:20:13;6.43;;;4.90;;
73951;SDS011;62304;47.662;18.324;2022-07-29T15:23:17;7.15;;;4.70;;
73951;SDS011;62304;47.662;18.324;2022-07-29T15:26:19;6.28;;;5.00;;
73951;SDS011;62304;47.662;18.324;2022-07-29T15:29:23;7.28;;;4.70;;
73951;SDS011;62304;47.662;18.324;2022-07-29T15:32:26;9.15;;;4.20;;
73951;SDS011;62304;47.662;18.324;2022-07-29T15:35:31;6.60;;;4.27;;
73951;SDS011;62304;47.662;18.324;2022-07-29T15:38:41;8.50;;;4.75;;
73951;SDS011;62304;47.662;18.324;2022-07-29T15:41:46;9.55;;;5.03;;
73951;SDS011;62304;47.662;18.324;2022-07-29T15:44:49;7.07;;;4.53;;
73951;SDS011;62304;47.662;18.324;2022-07-29T15:47:52;5.65;;;4.43;;
73951;SDS011;62304;47.662;18.324;2022-07-29T15:50:55;5.83;;;4.60;;
73951;SDS011;62304;47.662;18.324;2022-07-29T15:54:00;6.35;;;4.10;;
73951;SDS011;62304;47.662;18.324;2022-07-29T15:57:04;8.70;;;5.00;;
73951;SDS011;62304;47.662;18.324;2022-07-29T16:00:11;13.55;;;4.80;;
73951;SDS011;62304;47.662;18.324;2022-07-29T16:03:15;7.15;;;4.57;;
73951;SDS011;62304;47.662;18.324;2022-07-29T16:06:18;6.47;;;4.80;;
73951;SDS011;62304;47.662;18.324;2022-07-29T16:09:21;8.25;;;5.00;;
73951;SDS011;62304;47.662;18.324;2022-07-29T16:12:25;6.60;;;5.10;;
73951;SDS011;62304;47.662;18.324;2022-07-29T16:15:30;7.40;;;5.57;;
73951;SDS011;62304;47.662;18.324;2022-07-29T16:18:33;7.53;;;4.70;;
73951;SDS011;62304;47.662;18.324;2022-07-29T16:21:36;8.30;;;4.97;;
73951;SDS011;62304;47.662;18.324;2022-07-29T16:24:40;8.38;;;5.07;;
73951;SDS011;62304;47.662;18.324;2022-07-29T16:27:44;7.20;;;4.80;;
73951;SDS011;62304;47.662;18.324;2022-07-29T16:30:46;7.20;;;5.00;;
73951;SDS011;62304;47.662;18.324;2022-07-29T16:33:50;11.45;;;5.43;;
73951;SDS011;62304;47.662;18.324;2022-07-29T16:36:56;8.10;;;5.70;;
73951;SDS011;62304;47.662;18.324;2022-07-29T16:40:01;9.20;;;4.90;;
73951;SDS011;62304;47.662;18.324;2022-07-29T16:43:06;6.57;;;5.35;;
73951;SDS011;62304;47.662;18.324;2022-07-29T16:46:09;6.68;;;4.90;;
73951;SDS011;62304;47.662;18.324;2022-07-29T16:49:20;12.25;;;5.43;;
73951;SDS011;62304;47.662;18.324;2022-07-29T16:52:23;7.70;;;5.17;;
73951;SDS011;62304;47.662;18.324;2022-07-29T16:55:28;7.72;;;5.03;;
73951;SDS011;62304;47.662;18.324;2022-07-29T16:58:31;8.60;;;5.28;;
73951;SDS011;62304;47.662;18.324;2022-07-29T17:01:35;7.85;;;5.40;;
73951;SDS011;62304;47.662;18.324;2022-07-29T17:04:39;9.52;;;5.20;;
73951;SDS011;62304;47.662;18.324;2022-07-29T17:07:42;10.33;;;5.30;;
73951;SDS011;62304;47.662;18.324;2022-07-29T17:10:45;9.57;;;5.40;;
73951;SDS011;62304;47.662;18.324;2022-07-29T17:13:49;9.48;;;5.15;;
73951;SDS011;62304;47.662;18.324;2022-07-29T17:16:53;8.02;;;5.50;;
73951;SDS011;62304;47.662;18.324;2022-07-29T17:20:03;8.73;;;4.68;;
73951;SDS011;62304;47.662;18.324;2022-07-29T17:23:06;7.40;;;5.03;;
73951;SDS011;62304;47.662;18.324;2022-07-29T17:26:09;12.20;;;5.50;;
73951;SDS011;62304;47.662;18.324;2022-07-29T17:29:12;15.98;;;5.85;;
73951;SDS011;62304;47.662;18.324;2022-07-29T17:32:17;7.47;;;5.10;;
73951;SDS011;62304;47.662;18.324;2022-07-29T17:35:20;8.65;;;5.50;;
73951;SDS011;62304;47.662;18.324;2022-07-29T17:38:42;9.93;;;5.20;;
73951;SDS011;62304;47.662;18.324;2022-07-29T17:41:45;8.73;;;5.30;;
73951;SDS011;62304;47.662;18.324;2022-07-29T17:44:48;8.38;;;5.50;;
73951;SDS011;62304;47.662;18.324;2022-07-29T17:47:51;11.80;;;5.45;;
73951;SDS011;62304;47.662;18.324;2022-07-29T17:50:54;7.10;;;4.90;;
73951;SDS011;62304;47.662;18.324;2022-07-29T17:53:58;7.37;;;4.83;;
73951;SDS011;62304;47.662;18.324;2022-07-29T17:57:00;6.25;;;4.97;;
73951;SDS011;62304;47.662;18.324;2022-07-29T18:00:04;7.82;;;5.20;;
73951;SDS011;62304;47.662;18.324;2022-07-29T18:03:10;11.15;;;4.45;;
73951;SDS011;62304;47.662;18.324;2022-07-29T18:06:12;6.40;;;4.45;;
73951;SDS011;62304;47.662;18.324;2022-07-29T18:09:17;8.63;;;4.77;;
73951;SDS011;62304;47.662;18.324;2022-07-29T18:12:20;10.15;;;4.90;;
73951;SDS011;62304;47.662;18.324;2022-07-29T18:15:23;6.68;;;4.03;;
73951;SDS011;62304;47.662;18.324;2022-07-29T18:18:26;10.13;;;4.30;;
73951;SDS011;62304;47.662;18.324;2022-07-29T18:21:29;9.02;;;4.30;;
73951;SDS011;62304;47.662;18.324;2022-07-29T18:24:52;9.80;;;4.00;;
73951;SDS011;62304;47.662;18.324;2022-07-29T18:27:55;5.97;;;4.12;;
73951;SDS011;62304;47.662;18.324;2022-07-29T18:31:01;8.27;;;4.40;;
73951;SDS011;62304;47.662;18.324;2022-07-29T18:34:06;7.45;;;4.22;;
73951;SDS011;62304;47.662;18.324;2022-07-29T18:37:09;6.05;;;4.32;;
73951;SDS011;62304;47.662;18.324;2022-07-29T18:40:15;6.63;;;4.70;;
73951;SDS011;62304;47.662;18.324;2022-07-29T18:43:17;8.85;;;4.53;;
73951;SDS011;62304;47.662;18.324;2022-07-29T18:46:21;7.07;;;4.60;;
73951;SDS011;62304;47.662;18.324;2022-07-29T18:49:24;8.27;;;4.57;;
73951;SDS011;62304;47.662;18.324;2022-07-29T18:52:27;8.88;;;4.35;;
73951;SDS011;62304;47.662;18.324;2022-07-29T18:55:30;8.27;;;4.47;;